sensor_id;sensor_type;location;lat;lon;timestamp;temperature;humidity
21037;DHT22;10677;50.942;4.028;2022-12-18T00:02:16;-2.70;99.90
21037;DHT22;10677;50.942;4.028;2022-12-18T00:04:42;-2.70;99.90
21037;DHT22;10677;50.942;4.028;2022-12-18T00:07:08;-2.90;99.90
21037;DHT22;10677;50.942;4.028;2022-12-18T00:09:33;-2.90;99.90
21037;DHT22;10677;50.942;4.028;2022-12-18T00:11:59;-2.90;99.90
21037;DHT22;10677;50.942;4.028;2022-12-18T00:14:25;-2.70;99.90
21037;DHT22;10677;50.942;4.028;2022-12-18T00:16:50;-2.70;99.90
21037;DHT22;10677;50.942;4.028;2022-12-18T00:19:16;-2.80;99.90
21037;DHT22;10677;50.942;4.028;2022-12-18T00:21:43;-3.00;99.90
21037;DHT22;10677;50.942;4.028;2022-12-18T00:24:09;-3.10;99.90
21037;DHT22;10677;50.942;4.028;2022-12-18T00:26:36;-3.20;99.90
21037;DHT22;10677;50.942;4.028;2022-12-18T00:29:13;-3.20;99.90
21037;DHT22;10677;50.942;4.028;2022-12-18T00:31:40;-3.20;99.90
21037;DHT22;10677;50.942;4.028;2022-12-18T00:34:08;-3.20;99.90
21037;DHT22;10677;50.942;4.028;2022-12-18T00:36:39;-3.20;99.90
21037;DHT22;10677;50.942;4.028;2022-12-18T00:39:05;-3.10;99.90
21037;DHT22;10677;50.942;4.028;2022-12-18T00:41:31;-3.10;99.90
21037;DHT22;10677;50.942;4.028;2022-12-18T00:44:17;-3.10;99.90
21037;DHT22;10677;50.942;4.028;2022-12-18T00:46:43;-3.00;99.90
21037;DHT22;10677;50.942;4.028;2022-12-18T00:49:10;-2.90;99.90
21037;DHT22;10677;50.942;4.028;2022-12-18T00:51:36;-2.90;99.90
21037;DHT22;10677;50.942;4.028;2022-12-18T00:54:01;-2.80;99.90
21037;DHT22;10677;50.942;4.028;2022-12-18T00:56:27;-2.80;99.90
21037;DHT22;10677;50.942;4.028;2022-12-18T00:58:53;-2.70;99.90
21037;DHT22;10677;50.942;4.028;2022-12-18T01:01:19;-2.80;99.90
21037;DHT22;10677;50.942;4.028;2022-12-18T01:03:45;-2.80;99.90
21037;DHT22;10677;50.942;4.028;2022-12-18T01:06:13;-2.80;99.90
21037;DHT22;10677;50.942;4.028;2022-12-18T01:08:39;-2.90;99.90
21037;DHT22;10677;50.942;4.028;2022-12-18T01:11:13;-3.00;99.90
21037;DHT22;10677;50.942;4.028;2022-12-18T01:13:40;-3.00;99.90
21037;DHT22;10677;50.942;4.028;2022-12-18T01:16:05;-3.10;99.90
21037;DHT22;10677;50.942;4.028;2022-12-18T01:18:31;-3.00;99.90
21037;DHT22;10677;50.942;4.028;2022-12-18T01:20:57;-3.00;99.90
21037;DHT22;10677;50.942;4.028;2022-12-18T01:23:23;-3.10;99.90
21037;DHT22;10677;50.942;4.028;2022-12-18T01:25:48;-3.10;99.90
21037;DHT22;10677;50.942;4.028;2022-12-18T01:28:14;-3.20;99.90
21037;DHT22;10677;50.942;4.028;2022-12-18T01:30:40;-3.10;99.90
21037;DHT22;10677;50.942;4.028;2022-12-18T01:33:05;-3.40;99.90
21037;DHT22;10677;50.942;4.028;2022-12-18T01:35:31;-3.40;99.90
21037;DHT22;10677;50.942;4.028;2022-12-18T01:37:58;-3.40;99.90
21037;DHT22;10677;50.942;4.028;2022-12-18T01:40:24;-3.50;99.90
21037;DHT22;10677;50.942;4.028;2022-12-18T01:42:52;-3.50;99.90
21037;DHT22;10677;50.942;4.028;2022-12-18T01:45:27;-3.60;99.90
21037;DHT22;10677;50.942;4.028;2022-12-18T01:48:02;-3.60;99.90
21037;DHT22;10677;50.942;4.028;2022-12-18T01:53:15;-3.40;99.90
21037;DHT22;10677;50.942;4.028;2022-12-18T01:55:53;-3.40;99.90
21037;DHT22;10677;50.942;4.028;2022-12-18T01:58:22;-3.40;99.90
21037;DHT22;10677;50.942;4.028;2022-12-18T02:00:49;-3.40;99.90
21037;DHT22;10677;50.942;4.028;2022-12-18T02:03:15;-3.60;99.90
21037;DHT22;10677;50.942;4.028;2022-12-18T02:06:00;-3.70;99.90
21037;DHT22;10677;50.942;4.028;2022-12-18T02:11:36;-3.80;99.90
21037;DHT22;10677;50.942;4.028;2022-12-18T02:17:01;-3.80;99.90
21037;DHT22;10677;50.942;4.028;2022-12-18T02:28:13;-3.70;99.90
21037;DHT22;10677;50.942;4.028;2022-12-18T02:30:41;-3.60;99.90
21037;DHT22;10677;50.942;4.028;2022-12-18T02:33:08;-3.60;99.90
21037;DHT22;10677;50.942;4.028;2022-12-18T02:35:36;-3.50;99.90
21037;DHT22;10677;50.942;4.028;2022-12-18T02:38:04;-3.50;99.90
21037;DHT22;10677;50.942;4.028;2022-12-18T02:41:04;-3.50;99.90
21037;DHT22;10677;50.942;4.028;2022-12-18T02:43:31;-3.40;99.90
21037;DHT22;10677;50.942;4.028;2022-12-18T02:45:58;-3.40;99.90
21037;DHT22;10677;50.942;4.028;2022-12-18T02:48:31;-3.50;99.90
21037;DHT22;10677;50.942;4.028;2022-12-18T02:51:18;-3.60;99.90
21037;DHT22;10677;50.942;4.028;2022-12-18T02:53:53;-3.60;99.90
21037;DHT22;10677;50.942;4.028;2022-12-18T02:56:43;-3.70;99.90
21037;DHT22;10677;50.942;4.028;2022-12-18T02:59:17;-3.70;99.90
21037;DHT22;10677;50.942;4.028;2022-12-18T03:02:05;-3.80;99.90
21037;DHT22;10677;50.942;4.028;2022-12-18T03:04:39;-3.80;99.90
21037;DHT22;10677;50.942;4.028;2022-12-18T03:07:14;-3.80;99.90
21037;DHT22;10677;50.942;4.028;2022-12-18T03:09:43;-3.80;99.90
21037;DHT22;10677;50.942;4.028;2022-12-18T03:12:38;-3.70;99.90
21037;DHT22;10677;50.942;4.028;2022-12-18T03:15:19;-3.80;99.90
21037;DHT22;10677;50.942;4.028;2022-12-18T03:17:55;-3.90;99.90
21037;DHT22;10677;50.942;4.028;2022-12-18T03:20:24;-3.80;99.90
21037;DHT22;10677;50.942;4.028;2022-12-18T03:22:55;-3.80;99.90
21037;DHT22;10677;50.942;4.028;2022-12-18T03:25:23;-3.80;99.90
21037;DHT22;10677;50.942;4.028;2022-12-18T03:27:55;-3.80;99.90
21037;DHT22;10677;50.942;4.028;2022-12-18T03:30:23;-3.90;99.90
21037;DHT22;10677;50.942;4.028;2022-12-18T03:33:04;-4.10;99.90
21037;DHT22;10677;50.942;4.028;2022-12-18T03:35:34;-4.20;99.90
21037;DHT22;10677;50.942;4.028;2022-12-18T03:38:00;-4.30;99.90
21037;DHT22;10677;50.942;4.028;2022-12-18T03:40:39;-4.40;99.90
21037;DHT22;10677;50.942;4.028;2022-12-18T03:43:40;-4.40;99.90
21037;DHT22;10677;50.942;4.028;2022-12-18T03:46:15;-4.30;99.90
21037;DHT22;10677;50.942;4.028;2022-12-18T03:48:46;-4.50;99.90
21037;DHT22;10677;50.942;4.028;2022-12-18T03:51:23;-4.60;99.90
21037;DHT22;10677;50.942;4.028;2022-12-18T03:53:57;-4.50;99.90
21037;DHT22;10677;50.942;4.028;2022-12-18T03:56:26;-4.60;99.90
21037;DHT22;10677;50.942;4.028;2022-12-18T03:58:55;-4.60;99.90
21037;DHT22;10677;50.942;4.028;2022-12-18T04:01:28;-4.60;99.90
21037;DHT22;10677;50.942;4.028;2022-12-18T04:03:57;-4.50;99.90
21037;DHT22;10677;50.942;4.028;2022-12-18T04:06:25;-4.40;99.90
21037;DHT22;10677;50.942;4.028;2022-12-18T04:08:51;-4.30;99.90
21037;DHT22;10677;50.942;4.028;2022-12-18T04:11:17;-4.30;99.90
21037;DHT22;10677;50.942;4.028;2022-12-18T04:13:44;-4.30;99.90
21037;DHT22;10677;50.942;4.028;2022-12-18T04:16:10;-4.20;99.90
21037;DHT22;10677;50.942;4.028;2022-12-18T04:18:36;-4.20;99.90
21037;DHT22;10677;50.942;4.028;2022-12-18T04:21:02;-4.20;99.90
21037;DHT22;10677;50.942;4.028;2022-12-18T04:23:28;-4.20;99.90
21037;DHT22;10677;50.942;4.028;2022-12-18T04:25:54;-4.30;99.90
21037;DHT22;10677;50.942;4.028;2022-12-18T04:28:20;-4.30;99.90
21037;DHT22;10677;50.942;4.028;2022-12-18T04:30:45;-4.40;99.90
21037;DHT22;10677;50.942;4.028;2022-12-18T04:33:11;-4.40;99.90
21037;DHT22;10677;50.942;4.028;2022-12-18T04:35:39;-4.50;99.90
21037;DHT22;10677;50.942;4.028;2022-12-18T04:38:06;-4.50;99.90
21037;DHT22;10677;50.942;4.028;2022-12-18T04:40:32;-4.50;99.90
21037;DHT22;10677;50.942;4.028;2022-12-18T04:42:57;-4.50;99.90
21037;DHT22;10677;50.942;4.028;2022-12-18T04:45:24;-4.40;99.90
21037;DHT22;10677;50.942;4.028;2022-12-18T04:47:51;-4.30;99.90
21037;DHT22;10677;50.942;4.028;2022-12-18T04:50:17;-4.20;99.90
21037;DHT22;10677;50.942;4.028;2022-12-18T04:52:42;-4.00;99.90
21037;DHT22;10677;50.942;4.028;2022-12-18T04:55:08;-4.20;99.90
21037;DHT22;10677;50.942;4.028;2022-12-18T04:57:34;-4.10;99.90
21037;DHT22;10677;50.942;4.028;2022-12-18T04:59:59;-4.10;99.90
21037;DHT22;10677;50.942;4.028;2022-12-18T05:02:25;-4.10;99.90
21037;DHT22;10677;50.942;4.028;2022-12-18T05:04:51;-4.10;99.90
21037;DHT22;10677;50.942;4.028;2022-12-18T05:07:16;-4.00;99.90
21037;DHT22;10677;50.942;4.028;2022-12-18T05:09:42;-4.00;99.90
21037;DHT22;10677;50.942;4.028;2022-12-18T05:12:07;-3.90;99.90
21037;DHT22;10677;50.942;4.028;2022-12-18T05:14:33;-3.80;99.90
21037;DHT22;10677;50.942;4.028;2022-12-18T05:16:59;-3.80;99.90
21037;DHT22;10677;50.942;4.028;2022-12-18T05:19:24;-3.80;99.90
21037;DHT22;10677;50.942;4.028;2022-12-18T05:21:50;-3.80;99.90
21037;DHT22;10677;50.942;4.028;2022-12-18T05:24:15;-3.60;99.90
21037;DHT22;10677;50.942;4.028;2022-12-18T05:26:41;-3.70;99.90
21037;DHT22;10677;50.942;4.028;2022-12-18T05:29:07;-3.60;99.90
21037;DHT22;10677;50.942;4.028;2022-12-18T05:31:32;-3.60;99.90
21037;DHT22;10677;50.942;4.028;2022-12-18T05:33:58;-3.50;99.90
21037;DHT22;10677;50.942;4.028;2022-12-18T05:36:24;-3.40;99.90
21037;DHT22;10677;50.942;4.028;2022-12-18T05:38:49;-3.30;99.90
21037;DHT22;10677;50.942;4.028;2022-12-18T05:41:15;-3.40;99.90
21037;DHT22;10677;50.942;4.028;2022-12-18T05:43:41;-3.40;99.90
21037;DHT22;10677;50.942;4.028;2022-12-18T05:46:11;-3.40;99.90
21037;DHT22;10677;50.942;4.028;2022-12-18T05:48:37;-3.70;99.90
21037;DHT22;10677;50.942;4.028;2022-12-18T05:51:14;-3.70;99.90
21037;DHT22;10677;50.942;4.028;2022-12-18T05:53:40;-3.70;99.90
21037;DHT22;10677;50.942;4.028;2022-12-18T05:56:09;-3.60;99.90
21037;DHT22;10677;50.942;4.028;2022-12-18T05:58:35;-3.50;99.90
21037;DHT22;10677;50.942;4.028;2022-12-18T06:01:16;-3.50;99.90
21037;DHT22;10677;50.942;4.028;2022-12-18T06:03:43;-3.70;99.90
21037;DHT22;10677;50.942;4.028;2022-12-18T06:06:17;-3.70;99.90
21037;DHT22;10677;50.942;4.028;2022-12-18T06:08:43;-3.70;99.90
21037;DHT22;10677;50.942;4.028;2022-12-18T06:11:09;-3.80;99.90
21037;DHT22;10677;50.942;4.028;2022-12-18T06:13:35;-3.80;99.90
21037;DHT22;10677;50.942;4.028;2022-12-18T06:16:05;-4.10;99.90
21037;DHT22;10677;50.942;4.028;2022-12-18T06:18:32;-4.10;99.90
21037;DHT22;10677;50.942;4.028;2022-12-18T06:20:58;-4.20;99.90
21037;DHT22;10677;50.942;4.028;2022-12-18T06:23:24;-4.20;99.90
21037;DHT22;10677;50.942;4.028;2022-12-18T06:25:50;-4.10;99.90
21037;DHT22;10677;50.942;4.028;2022-12-18T06:28:16;-4.20;99.90
21037;DHT22;10677;50.942;4.028;2022-12-18T06:30:46;-4.20;99.90
21037;DHT22;10677;50.942;4.028;2022-12-18T06:33:12;-4.20;99.90
21037;DHT22;10677;50.942;4.028;2022-12-18T06:35:38;-4.20;99.90
21037;DHT22;10677;50.942;4.028;2022-12-18T06:38:03;-4.20;99.90
21037;DHT22;10677;50.942;4.028;2022-12-18T06:40:29;-4.20;99.90
21037;DHT22;10677;50.942;4.028;2022-12-18T06:42:55;-4.20;99.90
21037;DHT22;10677;50.942;4.028;2022-12-18T06:45:22;-4.20;99.90
21037;DHT22;10677;50.942;4.028;2022-12-18T06:47:47;-4.10;99.90
21037;DHT22;10677;50.942;4.028;2022-12-18T06:50:13;-4.10;99.90
21037;DHT22;10677;50.942;4.028;2022-12-18T06:52:39;-4.10;99.90
21037;DHT22;10677;50.942;4.028;2022-12-18T06:55:09;-4.10;99.90
21037;DHT22;10677;50.942;4.028;2022-12-18T06:57:34;-4.00;99.90
21037;DHT22;10677;50.942;4.028;2022-12-18T07:00:00;-4.10;99.90
21037;DHT22;10677;50.942;4.028;2022-12-18T07:02:26;-4.10;99.90
21037;DHT22;10677;50.942;4.028;2022-12-18T07:04:51;-4.10;99.90
21037;DHT22;10677;50.942;4.028;2022-12-18T07:07:17;-4.10;99.90
21037;DHT22;10677;50.942;4.028;2022-12-18T07:09:43;-4.00;99.90
21037;DHT22;10677;50.942;4.028;2022-12-18T07:12:09;-4.10;99.90
21037;DHT22;10677;50.942;4.028;2022-12-18T07:14:34;-3.90;99.90
21037;DHT22;10677;50.942;4.028;2022-12-18T07:17:02;-3.80;99.90
21037;DHT22;10677;50.942;4.028;2022-12-18T07:19:27;-3.70;99.90
21037;DHT22;10677;50.942;4.028;2022-12-18T07:21:53;-3.60;99.90
21037;DHT22;10677;50.942;4.028;2022-12-18T07:24:18;-3.70;99.90
21037;DHT22;10677;50.942;4.028;2022-12-18T07:26:47;-3.70;99.90
21037;DHT22;10677;50.942;4.028;2022-12-18T07:29:13;-3.80;99.90
21037;DHT22;10677;50.942;4.028;2022-12-18T07:31:39;-3.80;99.90
21037;DHT22;10677;50.942;4.028;2022-12-18T07:34:05;-3.80;99.90
21037;DHT22;10677;50.942;4.028;2022-12-18T07:36:30;-3.90;99.90
21037;DHT22;10677;50.942;4.028;2022-12-18T07:38:57;-4.00;99.90
21037;DHT22;10677;50.942;4.028;2022-12-18T07:41:23;-4.00;99.90
21037;DHT22;10677;50.942;4.028;2022-12-18T07:43:49;-4.00;99.90
21037;DHT22;10677;50.942;4.028;2022-12-18T07:46:16;-4.00;99.90
21037;DHT22;10677;50.942;4.028;2022-12-18T07:48:45;-3.90;99.90
21037;DHT22;10677;50.942;4.028;2022-12-18T07:51:10;-4.00;99.90
21037;DHT22;10677;50.942;4.028;2022-12-18T07:53:36;-4.00;99.90
21037;DHT22;10677;50.942;4.028;2022-12-18T07:56:05;-4.00;99.90
21037;DHT22;10677;50.942;4.028;2022-12-18T07:58:31;-4.10;99.90
21037;DHT22;10677;50.942;4.028;2022-12-18T08:03:29;-4.00;99.90
21037;DHT22;10677;50.942;4.028;2022-12-18T08:05:59;-3.80;99.90
21037;DHT22;10677;50.942;4.028;2022-12-18T08:08:25;-3.70;99.90
21037;DHT22;10677;50.942;4.028;2022-12-18T08:10:51;-3.50;99.90
21037;DHT22;10677;50.942;4.028;2022-12-18T08:13:16;-3.80;99.90
21037;DHT22;10677;50.942;4.028;2022-12-18T08:15:42;-3.60;99.90
21037;DHT22;10677;50.942;4.028;2022-12-18T08:18:08;-3.70;99.90
21037;DHT22;10677;50.942;4.028;2022-12-18T08:20:33;-3.60;99.90
21037;DHT22;10677;50.942;4.028;2022-12-18T08:22:59;-3.40;99.90
21037;DHT22;10677;50.942;4.028;2022-12-18T08:25:25;-3.40;99.90
21037;DHT22;10677;50.942;4.028;2022-12-18T08:27:50;-3.30;99.90
21037;DHT22;10677;50.942;4.028;2022-12-18T08:30:16;-3.30;99.90
21037;DHT22;10677;50.942;4.028;2022-12-18T08:32:42;-3.30;99.90
21037;DHT22;10677;50.942;4.028;2022-12-18T08:35:08;-3.20;99.90
21037;DHT22;10677;50.942;4.028;2022-12-18T08:37:34;-3.10;99.90
21037;DHT22;10677;50.942;4.028;2022-12-18T08:40:00;-3.00;99.90
21037;DHT22;10677;50.942;4.028;2022-12-18T08:42:25;-2.80;99.90
21037;DHT22;10677;50.942;4.028;2022-12-18T08:45:09;-2.60;99.90
21037;DHT22;10677;50.942;4.028;2022-12-18T08:47:35;-2.50;99.90
21037;DHT22;10677;50.942;4.028;2022-12-18T08:50:01;-2.30;99.90
21037;DHT22;10677;50.942;4.028;2022-12-18T08:52:26;-2.10;99.90
21037;DHT22;10677;50.942;4.028;2022-12-18T08:54:53;-2.00;99.90
21037;DHT22;10677;50.942;4.028;2022-12-18T08:57:19;-2.00;99.90
21037;DHT22;10677;50.942;4.028;2022-12-18T08:59:44;-2.00;99.90
21037;DHT22;10677;50.942;4.028;2022-12-18T09:02:11;-1.90;99.90
21037;DHT22;10677;50.942;4.028;2022-12-18T09:04:37;-1.90;99.90
21037;DHT22;10677;50.942;4.028;2022-12-18T09:07:02;-1.90;99.90
21037;DHT22;10677;50.942;4.028;2022-12-18T09:09:28;-1.90;99.90
21037;DHT22;10677;50.942;4.028;2022-12-18T09:11:54;-1.80;99.90
21037;DHT22;10677;50.942;4.028;2022-12-18T09:14:19;-1.80;99.90
21037;DHT22;10677;50.942;4.028;2022-12-18T09:16:45;-1.70;99.90
21037;DHT22;10677;50.942;4.028;2022-12-18T09:19:11;-1.50;99.90
21037;DHT22;10677;50.942;4.028;2022-12-18T09:21:36;-1.40;99.90
21037;DHT22;10677;50.942;4.028;2022-12-18T09:24:04;-1.20;99.90
21037;DHT22;10677;50.942;4.028;2022-12-18T09:26:30;-1.10;99.90
21037;DHT22;10677;50.942;4.028;2022-12-18T09:28:55;-1.00;99.90
21037;DHT22;10677;50.942;4.028;2022-12-18T09:31:22;-1.00;99.90
21037;DHT22;10677;50.942;4.028;2022-12-18T09:33:48;-0.90;99.90
21037;DHT22;10677;50.942;4.028;2022-12-18T09:36:16;-0.80;99.90
21037;DHT22;10677;50.942;4.028;2022-12-18T09:38:42;-0.70;99.90
21037;DHT22;10677;50.942;4.028;2022-12-18T09:44:16;-0.70;99.90
21037;DHT22;10677;50.942;4.028;2022-12-18T09:46:56;-0.70;99.90
21037;DHT22;10677;50.942;4.028;2022-12-18T09:49:27;-0.70;99.90
21037;DHT22;10677;50.942;4.028;2022-12-18T09:52:17;-0.60;99.90
21037;DHT22;10677;50.942;4.028;2022-12-18T09:54:51;-0.60;99.90
21037;DHT22;10677;50.942;4.028;2022-12-18T09:57:22;-0.70;99.90
21037;DHT22;10677;50.942;4.028;2022-12-18T10:00:15;-0.60;99.90
21037;DHT22;10677;50.942;4.028;2022-12-18T10:02:41;-0.50;99.90
21037;DHT22;10677;50.942;4.028;2022-12-18T10:05:19;-0.40;99.90
21037;DHT22;10677;50.942;4.028;2022-12-18T10:13:18;-0.20;99.90
21037;DHT22;10677;50.942;4.028;2022-12-18T10:15:45;0.10;99.90
21037;DHT22;10677;50.942;4.028;2022-12-18T10:20:56;0.10;99.90
21037;DHT22;10677;50.942;4.028;2022-12-18T10:23:39;0.20;99.90
21037;DHT22;10677;50.942;4.028;2022-12-18T10:26:10;0.30;99.90
21037;DHT22;10677;50.942;4.028;2022-12-18T10:28:40;0.30;99.90
21037;DHT22;10677;50.942;4.028;2022-12-18T10:31:06;0.20;99.90
21037;DHT22;10677;50.942;4.028;2022-12-18T10:33:33;0.20;99.90
21037;DHT22;10677;50.942;4.028;2022-12-18T10:35:59;0.30;99.90
21037;DHT22;10677;50.942;4.028;2022-12-18T10:38:30;0.40;99.90
21037;DHT22;10677;50.942;4.028;2022-12-18T10:48:25;0.20;99.90
21037;DHT22;10677;50.942;4.028;2022-12-18T10:50:52;0.20;99.90
21037;DHT22;10677;50.942;4.028;2022-12-18T10:53:22;0.30;99.90
21037;DHT22;10677;50.942;4.028;2022-12-18T10:55:49;0.20;99.90
21037;DHT22;10677;50.942;4.028;2022-12-18T10:58:30;0.30;99.90
21037;DHT22;10677;50.942;4.028;2022-12-18T11:01:18;0.30;99.90
21037;DHT22;10677;50.942;4.028;2022-12-18T11:03:58;0.50;99.90
21037;DHT22;10677;50.942;4.028;2022-12-18T11:06:25;0.60;99.90
21037;DHT22;10677;50.942;4.028;2022-12-18T11:09:02;0.70;99.90
21037;DHT22;10677;50.942;4.028;2022-12-18T11:11:28;0.60;99.90
21037;DHT22;10677;50.942;4.028;2022-12-18T11:14:06;0.80;99.90
21037;DHT22;10677;50.942;4.028;2022-12-18T11:16:49;0.60;99.90
21037;DHT22;10677;50.942;4.028;2022-12-18T11:19:37;0.80;99.90
21037;DHT22;10677;50.942;4.028;2022-12-18T11:22:24;0.90;99.90
21037;DHT22;10677;50.942;4.028;2022-12-18T11:27:40;1.20;99.90
21037;DHT22;10677;50.942;4.028;2022-12-18T11:30:31;1.30;99.90
21037;DHT22;10677;50.942;4.028;2022-12-18T11:33:17;1.30;99.90
21037;DHT22;10677;50.942;4.028;2022-12-18T11:38:29;1.40;99.90
21037;DHT22;10677;50.942;4.028;2022-12-18T11:40:58;1.50;99.90
21037;DHT22;10677;50.942;4.028;2022-12-18T11:43:33;1.50;99.90
21037;DHT22;10677;50.942;4.028;2022-12-18T11:46:06;1.60;99.90
21037;DHT22;10677;50.942;4.028;2022-12-18T11:49:03;1.90;99.90
21037;DHT22;10677;50.942;4.028;2022-12-18T11:51:41;1.80;99.90
21037;DHT22;10677;50.942;4.028;2022-12-18T11:54:14;1.70;99.90
21037;DHT22;10677;50.942;4.028;2022-12-18T11:56:48;1.70;99.90
21037;DHT22;10677;50.942;4.028;2022-12-18T11:59:40;1.50;99.90
21037;DHT22;10677;50.942;4.028;2022-12-18T12:10:36;1.50;99.90
21037;DHT22;10677;50.942;4.028;2022-12-18T12:16:17;1.40;99.90
21037;DHT22;10677;50.942;4.028;2022-12-18T12:21:35;1.40;99.90
21037;DHT22;10677;50.942;4.028;2022-12-18T12:30:24;1.40;99.90
21037;DHT22;10677;50.942;4.028;2022-12-18T12:35:54;1.50;99.90
21037;DHT22;10677;50.942;4.028;2022-12-18T12:38:35;1.40;99.90
21037;DHT22;10677;50.942;4.028;2022-12-18T12:41:05;1.50;99.90
21037;DHT22;10677;50.942;4.028;2022-12-18T12:43:52;1.40;99.90
21037;DHT22;10677;50.942;4.028;2022-12-18T12:46:21;1.50;99.90
21037;DHT22;10677;50.942;4.028;2022-12-18T12:48:54;1.70;99.90
21037;DHT22;10677;50.942;4.028;2022-12-18T12:51:23;1.60;99.90
21037;DHT22;10677;50.942;4.028;2022-12-18T12:53:50;1.60;99.90
21037;DHT22;10677;50.942;4.028;2022-12-18T12:56:19;1.70;99.90
21037;DHT22;10677;50.942;4.028;2022-12-18T13:02:00;1.70;99.90
21037;DHT22;10677;50.942;4.028;2022-12-18T13:04:33;1.70;99.90
21037;DHT22;10677;50.942;4.028;2022-12-18T13:07:15;1.90;99.90
21037;DHT22;10677;50.942;4.028;2022-12-18T13:20:46;1.70;99.90
21037;DHT22;10677;50.942;4.028;2022-12-18T13:34:21;1.90;99.90
21037;DHT22;10677;50.942;4.028;2022-12-18T13:36:48;1.80;99.90
21037;DHT22;10677;50.942;4.028;2022-12-18T13:41:48;2.00;99.90
21037;DHT22;10677;50.942;4.028;2022-12-18T13:44:35;2.00;99.90
21037;DHT22;10677;50.942;4.028;2022-12-18T13:47:05;2.00;99.90
21037;DHT22;10677;50.942;4.028;2022-12-18T13:49:49;1.90;99.90
21037;DHT22;10677;50.942;4.028;2022-12-18T13:52:19;1.80;99.90
21037;DHT22;10677;50.942;4.028;2022-12-18T13:54:51;1.80;99.90
21037;DHT22;10677;50.942;4.028;2022-12-18T13:57:38;1.90;99.90
21037;DHT22;10677;50.942;4.028;2022-12-18T14:00:33;1.90;99.90
21037;DHT22;10677;50.942;4.028;2022-12-18T14:03:00;1.80;99.90
21037;DHT22;10677;50.942;4.028;2022-12-18T14:05:35;1.70;99.90
21037;DHT22;10677;50.942;4.028;2022-12-18T14:08:05;1.70;99.90
21037;DHT22;10677;50.942;4.028;2022-12-18T14:10:32;1.70;99.90
21037;DHT22;10677;50.942;4.028;2022-12-18T14:13:05;1.60;99.90
21037;DHT22;10677;50.942;4.028;2022-12-18T14:15:39;1.60;99.90
21037;DHT22;10677;50.942;4.028;2022-12-18T14:20:43;1.40;99.90
21037;DHT22;10677;50.942;4.028;2022-12-18T14:23:39;1.50;99.90
21037;DHT22;10677;50.942;4.028;2022-12-18T14:26:24;1.40;99.90
21037;DHT22;10677;50.942;4.028;2022-12-18T14:28:52;1.40;99.90
21037;DHT22;10677;50.942;4.028;2022-12-18T14:31:25;1.30;99.90
21037;DHT22;10677;50.942;4.028;2022-12-18T14:33:52;1.30;99.90
21037;DHT22;10677;50.942;4.028;2022-12-18T14:36:24;1.30;99.90
21037;DHT22;10677;50.942;4.028;2022-12-18T14:38:54;1.30;99.90
21037;DHT22;10677;50.942;4.028;2022-12-18T14:41:21;1.30;99.90
21037;DHT22;10677;50.942;4.028;2022-12-18T14:43:49;1.30;99.90
21037;DHT22;10677;50.942;4.028;2022-12-18T14:48:56;1.30;99.90
21037;DHT22;10677;50.942;4.028;2022-12-18T14:51:42;1.20;99.90
21037;DHT22;10677;50.942;4.028;2022-12-18T14:54:17;1.30;99.90
21037;DHT22;10677;50.942;4.028;2022-12-18T14:56:46;1.20;99.90
21037;DHT22;10677;50.942;4.028;2022-12-18T14:59:21;1.10;99.90
21037;DHT22;10677;50.942;4.028;2022-12-18T15:02:01;1.20;99.90
21037;DHT22;10677;50.942;4.028;2022-12-18T15:04:35;1.30;99.90
21037;DHT22;10677;50.942;4.028;2022-12-18T15:07:22;1.20;99.90
21037;DHT22;10677;50.942;4.028;2022-12-18T15:10:11;1.20;99.90
21037;DHT22;10677;50.942;4.028;2022-12-18T15:23:52;1.30;99.90
21037;DHT22;10677;50.942;4.028;2022-12-18T15:26:21;1.50;99.90
21037;DHT22;10677;50.942;4.028;2022-12-18T15:28:56;1.50;99.90
21037;DHT22;10677;50.942;4.028;2022-12-18T15:31:33;1.50;99.90
21037;DHT22;10677;50.942;4.028;2022-12-18T15:34:11;1.50;99.90
21037;DHT22;10677;50.942;4.028;2022-12-18T15:36:37;1.60;99.90
21037;DHT22;10677;50.942;4.028;2022-12-18T15:39:04;1.60;99.90
21037;DHT22;10677;50.942;4.028;2022-12-18T15:41:34;1.50;99.90
21037;DHT22;10677;50.942;4.028;2022-12-18T15:44:00;1.60;99.90
21037;DHT22;10677;50.942;4.028;2022-12-18T15:46:25;1.60;99.90
21037;DHT22;10677;50.942;4.028;2022-12-18T15:48:53;1.70;99.90
21037;DHT22;10677;50.942;4.028;2022-12-18T15:53:48;1.80;99.90
21037;DHT22;10677;50.942;4.028;2022-12-18T15:56:16;1.80;99.90
21037;DHT22;10677;50.942;4.028;2022-12-18T15:59:01;1.70;99.90
21037;DHT22;10677;50.942;4.028;2022-12-18T16:01:29;1.70;99.90
21037;DHT22;10677;50.942;4.028;2022-12-18T16:03:55;1.70;99.90
21037;DHT22;10677;50.942;4.028;2022-12-18T16:06:21;1.60;99.90
21037;DHT22;10677;50.942;4.028;2022-12-18T16:08:47;1.60;99.90
21037;DHT22;10677;50.942;4.028;2022-12-18T16:11:23;1.60;99.90
21037;DHT22;10677;50.942;4.028;2022-12-18T16:14:26;1.60;99.90
21037;DHT22;10677;50.942;4.028;2022-12-18T16:16:55;1.70;99.90
21037;DHT22;10677;50.942;4.028;2022-12-18T16:19:20;1.70;99.90
21037;DHT22;10677;50.942;4.028;2022-12-18T16:21:51;1.80;99.90
21037;DHT22;10677;50.942;4.028;2022-12-18T16:24:18;1.80;99.90
21037;DHT22;10677;50.942;4.028;2022-12-18T16:26:44;1.80;99.90
21037;DHT22;10677;50.942;4.028;2022-12-18T16:29:10;1.80;99.90
21037;DHT22;10677;50.942;4.028;2022-12-18T16:31:36;1.80;99.90
21037;DHT22;10677;50.942;4.028;2022-12-18T16:34:26;1.80;99.90
21037;DHT22;10677;50.942;4.028;2022-12-18T16:37:05;1.80;99.90
21037;DHT22;10677;50.942;4.028;2022-12-18T16:39:32;1.80;99.90
21037;DHT22;10677;50.942;4.028;2022-12-18T16:41:59;1.80;99.90
21037;DHT22;10677;50.942;4.028;2022-12-18T16:44:25;1.80;99.90
21037;DHT22;10677;50.942;4.028;2022-12-18T16:46:51;1.80;99.90
21037;DHT22;10677;50.942;4.028;2022-12-18T16:49:17;1.70;99.90
21037;DHT22;10677;50.942;4.028;2022-12-18T16:51:45;1.80;99.90
21037;DHT22;10677;50.942;4.028;2022-12-18T16:54:11;1.80;99.90
21037;DHT22;10677;50.942;4.028;2022-12-18T16:56:37;1.80;99.90
21037;DHT22;10677;50.942;4.028;2022-12-18T16:59:03;1.80;99.90
21037;DHT22;10677;50.942;4.028;2022-12-18T17:01:30;1.80;99.90
21037;DHT22;10677;50.942;4.028;2022-12-18T17:03:57;1.80;99.90
21037;DHT22;10677;50.942;4.028;2022-12-18T17:06:24;1.90;99.90
21037;DHT22;10677;50.942;4.028;2022-12-18T17:08:55;1.90;99.90
21037;DHT22;10677;50.942;4.028;2022-12-18T17:11:23;1.90;99.90
21037;DHT22;10677;50.942;4.028;2022-12-18T17:13:49;1.90;99.90
21037;DHT22;10677;50.942;4.028;2022-12-18T17:16:15;1.90;99.90
21037;DHT22;10677;50.942;4.028;2022-12-18T17:18:42;1.90;99.90
21037;DHT22;10677;50.942;4.028;2022-12-18T17:21:08;1.80;99.90
21037;DHT22;10677;50.942;4.028;2022-12-18T17:23:34;1.90;99.90
21037;DHT22;10677;50.942;4.028;2022-12-18T17:26:01;1.90;99.90
21037;DHT22;10677;50.942;4.028;2022-12-18T17:28:27;2.00;99.90
21037;DHT22;10677;50.942;4.028;2022-12-18T17:30:53;1.90;99.90
21037;DHT22;10677;50.942;4.028;2022-12-18T17:33:20;1.90;99.90
21037;DHT22;10677;50.942;4.028;2022-12-18T17:35:45;1.90;99.90
21037;DHT22;10677;50.942;4.028;2022-12-18T17:38:12;1.90;99.90
21037;DHT22;10677;50.942;4.028;2022-12-18T17:40:38;1.90;99.90
21037;DHT22;10677;50.942;4.028;2022-12-18T17:43:06;1.90;99.90
21037;DHT22;10677;50.942;4.028;2022-12-18T17:45:37;2.00;99.90
21037;DHT22;10677;50.942;4.028;2022-12-18T17:48:04;2.00;99.90
21037;DHT22;10677;50.942;4.028;2022-12-18T17:50:32;2.00;99.90